sensor_id;sensor_type;location;lat;lon;timestamp;temperature;humidity
52036;DHT22;38046;49.448;32.074;2022-12-28T00:01:14;5.00;77.60
52036;DHT22;38046;49.448;32.074;2022-12-28T00:03:40;5.00;77.60
52036;DHT22;38046;49.448;32.074;2022-12-28T00:06:06;5.00;77.70
52036;DHT22;38046;49.448;32.074;2022-12-28T00:08:32;5.00;77.70
52036;DHT22;38046;49.448;32.074;2022-12-28T00:11:00;5.00;77.70
52036;DHT22;38046;49.448;32.074;2022-12-28T00:13:26;5.00;77.70
52036;DHT22;38046;49.448;32.074;2022-12-28T00:15:51;5.00;77.60
52036;DHT22;38046;49.448;32.074;2022-12-28T00:18:17;5.00;77.60
52036;DHT22;38046;49.448;32.074;2022-12-28T00:20:42;5.10;77.50
52036;DHT22;38046;49.448;32.074;2022-12-28T00:23:08;5.10;77.50
52036;DHT22;38046;49.448;32.074;2022-12-28T00:25:35;5.10;77.50
52036;DHT22;38046;49.448;32.074;2022-12-28T00:28:01;5.10;77.30
52036;DHT22;38046;49.448;32.074;2022-12-28T00:30:26;5.10;77.10
52036;DHT22;38046;49.448;32.074;2022-12-28T00:32:52;5.20;77.20
52036;DHT22;38046;49.448;32.074;2022-12-28T00:35:18;5.20;77.00
52036;DHT22;38046;49.448;32.074;2022-12-28T00:37:43;5.20;76.80
52036;DHT22;38046;49.448;32.074;2022-12-28T00:40:09;5.20;76.70
52036;DHT22;38046;49.448;32.074;2022-12-28T00:42:35;5.20;76.70
52036;DHT22;38046;49.448;32.074;2022-12-28T00:45:01;5.20;76.40
52036;DHT22;38046;49.448;32.074;2022-12-28T00:47:26;5.20;76.30
52036;DHT22;38046;49.448;32.074;2022-12-28T00:49:52;5.20;76.20
52036;DHT22;38046;49.448;32.074;2022-12-28T00:52:18;5.20;76.00
52036;DHT22;38046;49.448;32.074;2022-12-28T00:54:43;5.20;76.00
52036;DHT22;38046;49.448;32.074;2022-12-28T00:57:09;5.30;76.00
52036;DHT22;38046;49.448;32.074;2022-12-28T00:59:34;5.30;75.70
52036;DHT22;38046;49.448;32.074;2022-12-28T01:02:00;5.30;75.70
52036;DHT22;38046;49.448;32.074;2022-12-28T01:04:26;5.30;75.60
52036;DHT22;38046;49.448;32.074;2022-12-28T01:06:51;5.30;75.60
52036;DHT22;38046;49.448;32.074;2022-12-28T01:09:17;5.30;75.60
52036;DHT22;38046;49.448;32.074;2022-12-28T01:11:42;5.30;75.30
52036;DHT22;38046;49.448;32.074;2022-12-28T01:14:08;5.30;75.40
52036;DHT22;38046;49.448;32.074;2022-12-28T01:16:35;5.30;75.20
52036;DHT22;38046;49.448;32.074;2022-12-28T01:19:04;5.30;75.30
52036;DHT22;38046;49.448;32.074;2022-12-28T01:21:31;5.30;75.30
52036;DHT22;38046;49.448;32.074;2022-12-28T01:24:00;5.30;75.40
52036;DHT22;38046;49.448;32.074;2022-12-28T01:26:27;5.30;75.40
52036;DHT22;38046;49.448;32.074;2022-12-28T01:28:53;5.30;75.60
52036;DHT22;38046;49.448;32.074;2022-12-28T01:31:20;5.30;75.60
52036;DHT22;38046;49.448;32.074;2022-12-28T01:33:46;5.30;75.60
52036;DHT22;38046;49.448;32.074;2022-12-28T01:38:40;5.30;75.80
52036;DHT22;38046;49.448;32.074;2022-12-28T01:41:08;5.30;75.70
52036;DHT22;38046;49.448;32.074;2022-12-28T01:43:45;5.30;75.70
52036;DHT22;38046;49.448;32.074;2022-12-28T01:46:42;5.30;75.70
52036;DHT22;38046;49.448;32.074;2022-12-28T01:49:30;5.20;75.40
52036;DHT22;38046;49.448;32.074;2022-12-28T01:52:20;5.30;75.70
52036;DHT22;38046;49.448;32.074;2022-12-28T01:54:55;5.30;75.80
52036;DHT22;38046;49.448;32.074;2022-12-28T01:57:25;5.30;75.90
52036;DHT22;38046;49.448;32.074;2022-12-28T01:59:57;5.30;76.10
52036;DHT22;38046;49.448;32.074;2022-12-28T02:02:25;5.30;76.00
52036;DHT22;38046;49.448;32.074;2022-12-28T02:04:52;5.30;76.00
52036;DHT22;38046;49.448;32.074;2022-12-28T02:07:28;5.20;76.00
52036;DHT22;38046;49.448;32.074;2022-12-28T02:09:56;5.20;75.90
52036;DHT22;38046;49.448;32.074;2022-12-28T02:12:23;5.20;76.00
52036;DHT22;38046;49.448;32.074;2022-12-28T02:14:49;5.20;76.10
52036;DHT22;38046;49.448;32.074;2022-12-28T02:17:16;5.20;76.10
52036;DHT22;38046;49.448;32.074;2022-12-28T02:19:46;5.10;76.00
52036;DHT22;38046;49.448;32.074;2022-12-28T02:30:55;5.10;75.90
52036;DHT22;38046;49.448;32.074;2022-12-28T02:33:28;5.10;75.90
52036;DHT22;38046;49.448;32.074;2022-12-28T02:36:10;5.10;76.00
52036;DHT22;38046;49.448;32.074;2022-12-28T02:38:54;5.10;76.00
52036;DHT22;38046;49.448;32.074;2022-12-28T02:41:24;5.10;76.00
52036;DHT22;38046;49.448;32.074;2022-12-28T02:43:51;5.10;76.00
52036;DHT22;38046;49.448;32.074;2022-12-28T02:46:36;5.10;75.90
52036;DHT22;38046;49.448;32.074;2022-12-28T02:49:26;5.10;75.90
52036;DHT22;38046;49.448;32.074;2022-12-28T03:14:24;5.00;76.70
52036;DHT22;38046;49.448;32.074;2022-12-28T03:16:52;5.00;76.70
52036;DHT22;38046;49.448;32.074;2022-12-28T03:19:43;5.00;76.70
52036;DHT22;38046;49.448;32.074;2022-12-28T03:22:30;5.00;76.90
52036;DHT22;38046;49.448;32.074;2022-12-28T03:25:18;5.00;77.10
52036;DHT22;38046;49.448;32.074;2022-12-28T03:28:06;5.00;77.20
52036;DHT22;38046;49.448;32.074;2022-12-28T03:30:56;5.00;77.30
52036;DHT22;38046;49.448;32.074;2022-12-28T03:33:28;4.90;77.40
52036;DHT22;38046;49.448;32.074;2022-12-28T03:36:09;5.00;77.50
52036;DHT22;38046;49.448;32.074;2022-12-28T03:41:36;4.90;77.80
52036;DHT22;38046;49.448;32.074;2022-12-28T03:44:22;4.90;77.90
52036;DHT22;38046;49.448;32.074;2022-12-28T03:47:08;4.90;78.30
52036;DHT22;38046;49.448;32.074;2022-12-28T03:49:35;4.90;78.20
52036;DHT22;38046;49.448;32.074;2022-12-28T03:52:01;4.90;78.40
52036;DHT22;38046;49.448;32.074;2022-12-28T03:54:27;4.90;78.50
52036;DHT22;38046;49.448;32.074;2022-12-28T03:56:52;4.90;78.50
52036;DHT22;38046;49.448;32.074;2022-12-28T03:59:18;4.90;78.50
52036;DHT22;38046;49.448;32.074;2022-12-28T04:01:44;5.00;78.60
52036;DHT22;38046;49.448;32.074;2022-12-28T04:04:10;4.90;78.70
52036;DHT22;38046;49.448;32.074;2022-12-28T04:06:36;4.90;78.80
52036;DHT22;38046;49.448;32.074;2022-12-28T04:09:03;4.90;78.90
52036;DHT22;38046;49.448;32.074;2022-12-28T04:11:28;4.90;79.00
52036;DHT22;38046;49.448;32.074;2022-12-28T04:13:54;4.90;79.20
52036;DHT22;38046;49.448;32.074;2022-12-28T04:16:20;4.90;79.20
52036;DHT22;38046;49.448;32.074;2022-12-28T04:18:45;4.90;79.30
52036;DHT22;38046;49.448;32.074;2022-12-28T04:21:12;4.90;79.30
52036;DHT22;38046;49.448;32.074;2022-12-28T04:23:38;4.90;79.30
52036;DHT22;38046;49.448;32.074;2022-12-28T04:26:09;5.00;79.50
52036;DHT22;38046;49.448;32.074;2022-12-28T04:28:36;5.00;79.40
52036;DHT22;38046;49.448;32.074;2022-12-28T04:31:04;5.00;79.40
52036;DHT22;38046;49.448;32.074;2022-12-28T04:33:34;5.00;79.30
52036;DHT22;38046;49.448;32.074;2022-12-28T04:36:08;5.10;79.30
52036;DHT22;38046;49.448;32.074;2022-12-28T04:38:34;5.10;79.30
52036;DHT22;38046;49.448;32.074;2022-12-28T04:41:02;5.10;79.40
52036;DHT22;38046;49.448;32.074;2022-12-28T04:43:28;5.00;79.30
52036;DHT22;38046;49.448;32.074;2022-12-28T04:46:03;5.10;79.40
52036;DHT22;38046;49.448;32.074;2022-12-28T04:48:30;5.10;79.40
52036;DHT22;38046;49.448;32.074;2022-12-28T04:50:56;5.10;79.50
52036;DHT22;38046;49.448;32.074;2022-12-28T04:53:22;5.10;79.50
52036;DHT22;38046;49.448;32.074;2022-12-28T04:55:48;5.10;79.50
52036;DHT22;38046;49.448;32.074;2022-12-28T04:58:14;5.10;79.50
52036;DHT22;38046;49.448;32.074;2022-12-28T05:00:39;5.10;79.60
52036;DHT22;38046;49.448;32.074;2022-12-28T05:03:05;5.20;79.60
52036;DHT22;38046;49.448;32.074;2022-12-28T05:05:31;5.20;79.50
52036;DHT22;38046;49.448;32.074;2022-12-28T05:08:00;5.20;79.50
52036;DHT22;38046;49.448;32.074;2022-12-28T05:10:27;5.20;79.50
52036;DHT22;38046;49.448;32.074;2022-12-28T05:12:56;5.20;79.50
52036;DHT22;38046;49.448;32.074;2022-12-28T05:15:22;5.20;79.50
52036;DHT22;38046;49.448;32.074;2022-12-28T05:17:47;5.10;79.50
52036;DHT22;38046;49.448;32.074;2022-12-28T05:20:13;5.20;79.60
52036;DHT22;38046;49.448;32.074;2022-12-28T05:22:40;5.20;79.50
52036;DHT22;38046;49.448;32.074;2022-12-28T05:25:06;5.20;79.60
52036;DHT22;38046;49.448;32.074;2022-12-28T05:27:31;5.10;79.50
52036;DHT22;38046;49.448;32.074;2022-12-28T05:29:57;5.20;79.60
52036;DHT22;38046;49.448;32.074;2022-12-28T05:32:23;5.20;79.60
52036;DHT22;38046;49.448;32.074;2022-12-28T05:34:48;5.10;79.60
52036;DHT22;38046;49.448;32.074;2022-12-28T05:37:14;5.20;79.60
52036;DHT22;38046;49.448;32.074;2022-12-28T05:39:40;5.20;79.80
52036;DHT22;38046;49.448;32.074;2022-12-28T05:42:05;5.20;79.70
52036;DHT22;38046;49.448;32.074;2022-12-28T05:44:31;5.20;79.70
52036;DHT22;38046;49.448;32.074;2022-12-28T05:46:56;5.30;79.80
52036;DHT22;38046;49.448;32.074;2022-12-28T05:49:22;5.20;79.70
52036;DHT22;38046;49.448;32.074;2022-12-28T05:51:49;5.20;79.70
52036;DHT22;38046;49.448;32.074;2022-12-28T05:54:18;5.20;79.70
52036;DHT22;38046;49.448;32.074;2022-12-28T05:56:43;5.20;79.80
52036;DHT22;38046;49.448;32.074;2022-12-28T05:59:09;5.30;79.70
52036;DHT22;38046;49.448;32.074;2022-12-28T06:01:39;5.30;79.80
52036;DHT22;38046;49.448;32.074;2022-12-28T06:04:07;5.30;79.80
52036;DHT22;38046;49.448;32.074;2022-12-28T06:06:33;5.30;79.60
52036;DHT22;38046;49.448;32.074;2022-12-28T06:09:00;5.30;79.70
52036;DHT22;38046;49.448;32.074;2022-12-28T06:11:27;5.30;79.60
52036;DHT22;38046;49.448;32.074;2022-12-28T06:13:54;5.30;79.60
52036;DHT22;38046;49.448;32.074;2022-12-28T06:16:23;5.30;79.60
52036;DHT22;38046;49.448;32.074;2022-12-28T06:18:50;5.30;79.60
52036;DHT22;38046;49.448;32.074;2022-12-28T06:21:22;5.30;79.60
52036;DHT22;38046;49.448;32.074;2022-12-28T06:23:48;5.30;79.70
52036;DHT22;38046;49.448;32.074;2022-12-28T06:26:17;5.30;79.70
52036;DHT22;38046;49.448;32.074;2022-12-28T06:28:43;5.30;79.70
52036;DHT22;38046;49.448;32.074;2022-12-28T06:31:14;5.30;79.80
52036;DHT22;38046;49.448;32.074;2022-12-28T06:33:41;5.40;79.80
52036;DHT22;38046;49.448;32.074;2022-12-28T06:36:14;5.30;79.70
52036;DHT22;38046;49.448;32.074;2022-12-28T06:38:41;5.40;79.80
52036;DHT22;38046;49.448;32.074;2022-12-28T06:41:08;5.40;79.70
52036;DHT22;38046;49.448;32.074;2022-12-28T06:43:35;5.40;79.50
52036;DHT22;38046;49.448;32.074;2022-12-28T06:46:02;5.40;79.50
52036;DHT22;38046;49.448;32.074;2022-12-28T06:48:29;5.40;79.50
52036;DHT22;38046;49.448;32.074;2022-12-28T06:51:07;5.40;79.50
52036;DHT22;38046;49.448;32.074;2022-12-28T06:53:35;5.50;79.30
52036;DHT22;38046;49.448;32.074;2022-12-28T06:56:04;5.50;79.20
52036;DHT22;38046;49.448;32.074;2022-12-28T06:58:31;5.50;79.20
52036;DHT22;38046;49.448;32.074;2022-12-28T07:01:08;5.50;79.00
52036;DHT22;38046;49.448;32.074;2022-12-28T07:03:34;5.50;78.90
52036;DHT22;38046;49.448;32.074;2022-12-28T07:06:01;5.60;78.80
52036;DHT22;38046;49.448;32.074;2022-12-28T07:08:28;5.60;78.80
52036;DHT22;38046;49.448;32.074;2022-12-28T07:10:53;5.60;78.70
52036;DHT22;38046;49.448;32.074;2022-12-28T07:13:19;5.60;78.60
52036;DHT22;38046;49.448;32.074;2022-12-28T07:15:45;5.70;78.60
52036;DHT22;38046;49.448;32.074;2022-12-28T07:18:10;5.70;78.60
52036;DHT22;38046;49.448;32.074;2022-12-28T07:20:36;5.70;78.50
52036;DHT22;38046;49.448;32.074;2022-12-28T07:23:02;5.80;78.60
52036;DHT22;38046;49.448;32.074;2022-12-28T07:25:27;5.80;78.60
52036;DHT22;38046;49.448;32.074;2022-12-28T07:27:53;5.80;78.60
52036;DHT22;38046;49.448;32.074;2022-12-28T07:30:19;5.80;78.50
52036;DHT22;38046;49.448;32.074;2022-12-28T07:32:45;5.80;78.50
52036;DHT22;38046;49.448;32.074;2022-12-28T07:35:10;5.80;78.60
52036;DHT22;38046;49.448;32.074;2022-12-28T07:37:36;5.80;78.60
52036;DHT22;38046;49.448;32.074;2022-12-28T07:40:02;5.80;78.80
52036;DHT22;38046;49.448;32.074;2022-12-28T07:42:28;5.80;78.60
52036;DHT22;38046;49.448;32.074;2022-12-28T07:44:53;5.80;78.50
52036;DHT22;38046;49.448;32.074;2022-12-28T07:47:19;5.80;78.40
52036;DHT22;38046;49.448;32.074;2022-12-28T07:49:45;5.80;78.30
52036;DHT22;38046;49.448;32.074;2022-12-28T07:52:10;5.80;78.40
52036;DHT22;38046;49.448;32.074;2022-12-28T07:54:36;5.80;78.40
52036;DHT22;38046;49.448;32.074;2022-12-28T07:57:02;5.90;78.40
52036;DHT22;38046;49.448;32.074;2022-12-28T07:59:28;5.90;78.40
52036;DHT22;38046;49.448;32.074;2022-12-28T08:01:53;5.90;78.30
52036;DHT22;38046;49.448;32.074;2022-12-28T08:04:19;5.90;78.10
52036;DHT22;38046;49.448;32.074;2022-12-28T08:06:45;6.00;78.00
52036;DHT22;38046;49.448;32.074;2022-12-28T08:09:12;6.00;78.00
52036;DHT22;38046;49.448;32.074;2022-12-28T08:11:43;6.00;77.80
52036;DHT22;38046;49.448;32.074;2022-12-28T08:14:10;6.10;77.80
52036;DHT22;38046;49.448;32.074;2022-12-28T08:16:40;6.10;77.60
52036;DHT22;38046;49.448;32.074;2022-12-28T08:19:07;6.10;77.40
52036;DHT22;38046;49.448;32.074;2022-12-28T08:21:39;6.10;77.50
52036;DHT22;38046;49.448;32.074;2022-12-28T08:24:06;6.20;77.50
52036;DHT22;38046;49.448;32.074;2022-12-28T08:26:37;6.20;77.50
52036;DHT22;38046;49.448;32.074;2022-12-28T08:29:09;6.20;77.40
52036;DHT22;38046;49.448;32.074;2022-12-28T08:31:38;6.20;77.10
52036;DHT22;38046;49.448;32.074;2022-12-28T08:34:06;6.30;77.20
52036;DHT22;38046;49.448;32.074;2022-12-28T08:36:33;6.30;77.10
52036;DHT22;38046;49.448;32.074;2022-12-28T08:38:59;6.30;77.00
52036;DHT22;38046;49.448;32.074;2022-12-28T08:41:26;6.30;76.80
52036;DHT22;38046;49.448;32.074;2022-12-28T08:43:53;6.30;77.00
52036;DHT22;38046;49.448;32.074;2022-12-28T08:46:21;6.30;76.70
52036;DHT22;38046;49.448;32.074;2022-12-28T08:48:48;6.30;77.20
52036;DHT22;38046;49.448;32.074;2022-12-28T08:51:17;6.40;76.40
52036;DHT22;38046;49.448;32.074;2022-12-28T08:53:44;6.40;76.50
52036;DHT22;38046;49.448;32.074;2022-12-28T08:56:18;6.40;76.30
52036;DHT22;38046;49.448;32.074;2022-12-28T08:58:45;6.40;76.20
52036;DHT22;38046;49.448;32.074;2022-12-28T09:01:17;6.40;76.00
52036;DHT22;38046;49.448;32.074;2022-12-28T09:03:45;6.50;75.70
52036;DHT22;38046;49.448;32.074;2022-12-28T09:06:16;6.50;75.70
52036;DHT22;38046;49.448;32.074;2022-12-28T09:08:43;6.50;75.70
52036;DHT22;38046;49.448;32.074;2022-12-28T09:11:11;6.50;75.40
52036;DHT22;38046;49.448;32.074;2022-12-28T09:13:37;6.50;75.10
52036;DHT22;38046;49.448;32.074;2022-12-28T09:16:06;6.50;75.20
52036;DHT22;38046;49.448;32.074;2022-12-28T09:18:33;6.50;75.20
52036;DHT22;38046;49.448;32.074;2022-12-28T09:23:35;6.60;75.10
52036;DHT22;38046;49.448;32.074;2022-12-28T09:26:10;6.60;75.10
52036;DHT22;38046;49.448;32.074;2022-12-28T09:28:36;6.60;74.70
52036;DHT22;38046;49.448;32.074;2022-12-28T09:31:03;6.70;74.20
52036;DHT22;38046;49.448;32.074;2022-12-28T09:33:29;6.70;73.90
52036;DHT22;38046;49.448;32.074;2022-12-28T09:36:13;6.60;73.50
52036;DHT22;38046;49.448;32.074;2022-12-28T09:38:41;6.60;73.50
52036;DHT22;38046;49.448;32.074;2022-12-28T09:41:30;6.60;73.40
52036;DHT22;38046;49.448;32.074;2022-12-28T09:47:00;6.50;72.90
52036;DHT22;38046;49.448;32.074;2022-12-28T09:50:10;6.40;73.00
52036;DHT22;38046;49.448;32.074;2022-12-28T09:55:10;6.40;73.00
52036;DHT22;38046;49.448;32.074;2022-12-28T09:57:39;6.40;73.10
52036;DHT22;38046;49.448;32.074;2022-12-28T10:00:14;6.40;73.10
52036;DHT22;38046;49.448;32.074;2022-12-28T10:02:41;6.50;73.00
52036;DHT22;38046;49.448;32.074;2022-12-28T10:05:11;6.40;73.00
52036;DHT22;38046;49.448;32.074;2022-12-28T10:07:37;6.50;72.80
52036;DHT22;38046;49.448;32.074;2022-12-28T10:10:03;6.60;72.50
52036;DHT22;38046;49.448;32.074;2022-12-28T10:12:29;6.60;72.20
52036;DHT22;38046;49.448;32.074;2022-12-28T10:14:55;6.60;71.70
52036;DHT22;38046;49.448;32.074;2022-12-28T10:17:27;6.70;71.80
52036;DHT22;38046;49.448;32.074;2022-12-28T10:19:56;6.70;71.90
52036;DHT22;38046;49.448;32.074;2022-12-28T10:22:24;6.80;71.60
52036;DHT22;38046;49.448;32.074;2022-12-28T10:24:51;6.80;72.10
52036;DHT22;38046;49.448;32.074;2022-12-28T10:27:23;6.90;70.90
52036;DHT22;38046;49.448;32.074;2022-12-28T10:29:49;6.90;70.60
52036;DHT22;38046;49.448;32.074;2022-12-28T10:32:16;6.80;68.90
52036;DHT22;38046;49.448;32.074;2022-12-28T10:34:55;6.80;70.30
52036;DHT22;38046;49.448;32.074;2022-12-28T10:37:23;6.80;69.90
52036;DHT22;38046;49.448;32.074;2022-12-28T10:40:00;6.80;70.20
52036;DHT22;38046;49.448;32.074;2022-12-28T10:42:37;6.80;69.70
52036;DHT22;38046;49.448;32.074;2022-12-28T10:45:06;6.80;69.20
52036;DHT22;38046;49.448;32.074;2022-12-28T10:47:42;6.70;68.90
52036;DHT22;38046;49.448;32.074;2022-12-28T10:53:32;6.70;68.90
52036;DHT22;38046;49.448;32.074;2022-12-28T10:58:31;6.60;69.20
52036;DHT22;38046;49.448;32.074;2022-12-28T11:01:05;6.50;69.40
52036;DHT22;38046;49.448;32.074;2022-12-28T11:03:36;6.50;69.50
52036;DHT22;38046;49.448;32.074;2022-12-28T11:06:12;6.50;69.40
52036;DHT22;38046;49.448;32.074;2022-12-28T11:08:39;6.50;69.50
52036;DHT22;38046;49.448;32.074;2022-12-28T11:11:06;6.40;69.30
52036;DHT22;38046;49.448;32.074;2022-12-28T11:13:32;6.40;69.20
52036;DHT22;38046;49.448;32.074;2022-12-28T11:15:58;6.40;69.30
52036;DHT22;38046;49.448;32.074;2022-12-28T11:18:24;6.40;69.40
52036;DHT22;38046;49.448;32.074;2022-12-28T11:20:52;6.40;69.00
52036;DHT22;38046;49.448;32.074;2022-12-28T11:23:23;6.40;68.70
52036;DHT22;38046;49.448;32.074;2022-12-28T11:25:49;6.40;68.60
52036;DHT22;38046;49.448;32.074;2022-12-28T11:28:19;6.30;67.40
52036;DHT22;38046;49.448;32.074;2022-12-28T11:30:47;6.30;68.30
52036;DHT22;38046;49.448;32.074;2022-12-28T11:35:53;6.30;67.60
52036;DHT22;38046;49.448;32.074;2022-12-28T11:38:43;6.20;67.40
52036;DHT22;38046;49.448;32.074;2022-12-28T11:44:02;6.20;67.70
52036;DHT22;38046;49.448;32.074;2022-12-28T11:51:33;6.30;68.60
52036;DHT22;38046;49.448;32.074;2022-12-28T11:59:29;6.40;68.60
52036;DHT22;38046;49.448;32.074;2022-12-28T12:04:46;6.50;68.60
52036;DHT22;38046;49.448;32.074;2022-12-28T12:07:16;6.50;68.30
52036;DHT22;38046;49.448;32.074;2022-12-28T12:09:44;6.60;68.40
52036;DHT22;38046;49.448;32.074;2022-12-28T12:14:44;6.70;68.30
52036;DHT22;38046;49.448;32.074;2022-12-28T12:20:02;6.60;68.00
52036;DHT22;38046;49.448;32.074;2022-12-28T12:22:39;6.60;68.20
52036;DHT22;38046;49.448;32.074;2022-12-28T12:27:42;6.60;68.30
52036;DHT22;38046;49.448;32.074;2022-12-28T12:30:17;6.60;68.50
52036;DHT22;38046;49.448;32.074;2022-12-28T12:32:54;6.60;68.00
52036;DHT22;38046;49.448;32.074;2022-12-28T12:35:24;6.60;68.90
52036;DHT22;38046;49.448;32.074;2022-12-28T12:40:36;6.70;67.60
52036;DHT22;38046;49.448;32.074;2022-12-28T12:51:38;6.70;67.60
52036;DHT22;38046;49.448;32.074;2022-12-28T12:54:59;6.70;67.20
52036;DHT22;38046;49.448;32.074;2022-12-28T12:57:21;6.70;67.10
52036;DHT22;38046;49.448;32.074;2022-12-28T12:59:59;6.70;67.10
52036;DHT22;38046;49.448;32.074;2022-12-28T13:02:41;6.70;66.90
52036;DHT22;38046;49.448;32.074;2022-12-28T13:05:16;6.60;67.00
52036;DHT22;38046;49.448;32.074;2022-12-28T13:07:43;6.60;67.00
52036;DHT22;38046;49.448;32.074;2022-12-28T13:10:15;6.70;67.10
52036;DHT22;38046;49.448;32.074;2022-12-28T13:12:41;6.70;67.00
52036;DHT22;38046;49.448;32.074;2022-12-28T13:15:14;6.70;66.70
52036;DHT22;38046;49.448;32.074;2022-12-28T13:18:01;6.70;66.60
52036;DHT22;38046;49.448;32.074;2022-12-28T13:20:27;6.70;66.60
52036;DHT22;38046;49.448;32.074;2022-12-28T13:22:53;6.70;66.90
52036;DHT22;38046;49.448;32.074;2022-12-28T13:25:27;6.70;66.90
52036;DHT22;38046;49.448;32.074;2022-12-28T13:27:54;6.70;66.90
52036;DHT22;38046;49.448;32.074;2022-12-28T13:30:21;6.70;67.00
52036;DHT22;38046;49.448;32.074;2022-12-28T13:33:18;6.60;67.10
52036;DHT22;38046;49.448;32.074;2022-12-28T13:35:44;6.60;67.20
52036;DHT22;38046;49.448;32.074;2022-12-28T13:38:14;6.60;67.00
52036;DHT22;38046;49.448;32.074;2022-12-28T13:40:49;6.50;66.90
52036;DHT22;38046;49.448;32.074;2022-12-28T13:46:10;6.40;67.20
52036;DHT22;38046;49.448;32.074;2022-12-28T13:48:40;6.40;67.40
52036;DHT22;38046;49.448;32.074;2022-12-28T13:51:09;6.30;67.50
52036;DHT22;38046;49.448;32.074;2022-12-28T13:53:36;6.30;67.60
52036;DHT22;38046;49.448;32.074;2022-12-28T13:56:04;6.30;67.70
52036;DHT22;38046;49.448;32.074;2022-12-28T13:58:37;6.20;67.60
52036;DHT22;38046;49.448;32.074;2022-12-28T14:01:07;6.20;67.60
52036;DHT22;38046;49.448;32.074;2022-12-28T14:03:36;6.20;67.60
52036;DHT22;38046;49.448;32.074;2022-12-28T14:06:03;6.20;67.60
52036;DHT22;38046;49.448;32.074;2022-12-28T14:08:33;6.10;67.40
52036;DHT22;38046;49.448;32.074;2022-12-28T14:11:00;6.10;67.40
52036;DHT22;38046;49.448;32.074;2022-12-28T14:13:26;6.10;67.60
52036;DHT22;38046;49.448;32.074;2022-12-28T14:15:54;6.10;67.70
52036;DHT22;38046;49.448;32.074;2022-12-28T14:18:20;6.00;67.60
52036;DHT22;38046;49.448;32.074;2022-12-28T14:20:54;6.00;67.70
52036;DHT22;38046;49.448;32.074;2022-12-28T14:23:27;5.90;67.70
52036;DHT22;38046;49.448;32.074;2022-12-28T14:25:56;5.90;67.90
52036;DHT22;38046;49.448;32.074;2022-12-28T14:30:55;5.90;68.10
52036;DHT22;38046;49.448;32.074;2022-12-28T14:33:24;5.80;68.10
52036;DHT22;38046;49.448;32.074;2022-12-28T14:35:54;5.80;68.20
52036;DHT22;38046;49.448;32.074;2022-12-28T14:38:22;5.80;68.30
52036;DHT22;38046;49.448;32.074;2022-12-28T14:40:54;5.80;68.30
52036;DHT22;38046;49.448;32.074;2022-12-28T14:43:34;5.70;68.30
52036;DHT22;38046;49.448;32.074;2022-12-28T14:46:24;5.70;68.50
52036;DHT22;38046;49.448;32.074;2022-12-28T14:48:52;5.70;68.50
52036;DHT22;38046;49.448;32.074;2022-12-28T14:51:27;5.60;68.00
52036;DHT22;38046;49.448;32.074;2022-12-28T14:54:33;5.60;68.40
52036;DHT22;38046;49.448;32.074;2022-12-28T14:59:49;5.50;68.40
52036;DHT22;38046;49.448;32.074;2022-12-28T15:04:58;5.50;68.30
52036;DHT22;38046;49.448;32.074;2022-12-28T15:07:23;5.50;68.30
52036;DHT22;38046;49.448;32.074;2022-12-28T15:09:49;5.50;68.10
52036;DHT22;38046;49.448;32.074;2022-12-28T15:12:17;5.60;68.70
52036;DHT22;38046;49.448;32.074;2022-12-28T15:14:49;5.60;68.60
52036;DHT22;38046;49.448;32.074;2022-12-28T15:17:16;5.70;68.60
52036;DHT22;38046;49.448;32.074;2022-12-28T15:19:42;5.80;68.50
52036;DHT22;38046;49.448;32.074;2022-12-28T15:22:10;5.80;68.40
52036;DHT22;38046;49.448;32.074;2022-12-28T15:24:36;5.90;68.10
52036;DHT22;38046;49.448;32.074;2022-12-28T15:27:03;5.90;67.60
52036;DHT22;38046;49.448;32.074;2022-12-28T15:29:29;5.80;67.30
52036;DHT22;38046;49.448;32.074;2022-12-28T15:31:55;5.80;67.40
52036;DHT22;38046;49.448;32.074;2022-12-28T15:34:21;5.70;67.40
52036;DHT22;38046;49.448;32.074;2022-12-28T15:36:47;5.70;67.30
52036;DHT22;38046;49.448;32.074;2022-12-28T15:39:13;5.60;67.30
52036;DHT22;38046;49.448;32.074;2022-12-28T15:41:39;5.60;67.60
52036;DHT22;38046;49.448;32.074;2022-12-28T15:44:11;5.60;67.40
52036;DHT22;38046;49.448;32.074;2022-12-28T15:46:36;5.50;67.30
52036;DHT22;38046;49.448;32.074;2022-12-28T15:49:03;5.50;67.50
52036;DHT22;38046;49.448;32.074;2022-12-28T15:51:29;5.50;67.60
52036;DHT22;38046;49.448;32.074;2022-12-28T15:53:55;5.40;67.60
52036;DHT22;38046;49.448;32.074;2022-12-28T15:56:23;5.40;67.70
52036;DHT22;38046;49.448;32.074;2022-12-28T15:58:51;5.40;67.80
52036;DHT22;38046;49.448;32.074;2022-12-28T16:01:17;5.40;68.10
52036;DHT22;38046;49.448;32.074;2022-12-28T16:03:43;5.40;68.10
52036;DHT22;38046;49.448;32.074;2022-12-28T16:06:09;5.50;68.20
52036;DHT22;38046;49.448;32.074;2022-12-28T16:09:47;5.60;67.60
52036;DHT22;38046;49.448;32.074;2022-12-28T16:12:13;5.70;67.70
52036;DHT22;38046;49.448;32.074;2022-12-28T16:14:43;5.70;67.40
52036;DHT22;38046;49.448;32.074;2022-12-28T16:17:09;5.80;67.40
52036;DHT22;38046;49.448;32.074;2022-12-28T16:19:34;5.80;67.50
52036;DHT22;38046;49.448;32.074;2022-12-28T16:22:00;5.80;67.20
52036;DHT22;38046;49.448;32.074;2022-12-28T16:24:26;5.90;67.30
52036;DHT22;38046;49.448;32.074;2022-12-28T16:26:53;5.90;67.30
52036;DHT22;38046;49.448;32.074;2022-12-28T16:29:19;5.90;67.30
52036;DHT22;38046;49.448;32.074;2022-12-28T16:31:44;5.90;67.30
52036;DHT22;38046;49.448;32.074;2022-12-28T16:34:15;5.90;67.30
52036;DHT22;38046;49.448;32.074;2022-12-28T16:36:43;5.90;67.20
52036;DHT22;38046;49.448;32.074;2022-12-28T16:39:12;5.90;67.20
52036;DHT22;38046;49.448;32.074;2022-12-28T16:41:38;5.90;67.10
52036;DHT22;38046;49.448;32.074;2022-12-28T16:44:39;5.90;67.20
52036;DHT22;38046;49.448;32.074;2022-12-28T16:46:58;5.90;67.40
52036;DHT22;38046;49.448;32.074;2022-12-28T16:49:25;5.80;67.50
52036;DHT22;38046;49.448;32.074;2022-12-28T16:51:51;5.80;67.60
52036;DHT22;38046;49.448;32.074;2022-12-28T16:54:19;5.80;67.80
52036;DHT22;38046;49.448;32.074;2022-12-28T16:56:46;5.80;67.90
52036;DHT22;38046;49.448;32.074;2022-12-28T16:59:15;5.80;68.00
52036;DHT22;38046;49.448;32.074;2022-12-28T17:01:42;5.70;68.10
52036;DHT22;38046;49.448;32.074;2022-12-28T17:04:08;5.70;68.30
52036;DHT22;38046;49.448;32.074;2022-12-28T17:06:33;5.60;68.40
52036;DHT22;38046;49.448;32.074;2022-12-28T17:09:03;5.60;69.20
52036;DHT22;38046;49.448;32.074;2022-12-28T17:11:29;5.60;68.80
52036;DHT22;38046;49.448;32.074;2022-12-28T17:14:08;5.60;69.00
52036;DHT22;38046;49.448;32.074;2022-12-28T17:16:34;5.50;69.00
52036;DHT22;38046;49.448;32.074;2022-12-28T17:19:00;5.50;69.20
52036;DHT22;38046;49.448;32.074;2022-12-28T17:21:27;5.50;69.30
52036;DHT22;38046;49.448;32.074;2022-12-28T17:23:53;5.50;69.40